Time;durP1;ratioP1;P1;durP2;ratioP2;P2;SDS_P1;SDS_P2;PMS_P1;PMS_P2;Temp;Humidity;BMP_temperature;BMP_pressure;BME280_temperature;BME280_humidity;BME280_pressure;Samples;Min_cycle;Max_cycle;Signal;HPM_P1;HPM_P2
2023/11/11 00:02:08;;;;;;;15.43;12.35;;;8.30;99.90;;;;;;5087362;28;20022;-75
2023/11/11 00:04:33;;;;;;;18.30;12.98;;;8.20;99.90;;;;;;5073233;28;20032;-75
2023/11/11 00:06:59;;;;;;;17.77;12.40;;;8.20;99.90;;;;;;5086672;28;20441;-77
2023/11/11 00:09:25;;;;;;;17.17;11.70;;;8.20;99.90;;;;;;5087080;28;20036;-77
2023/11/11 00:11:51;;;;;;;15.13;12.00;;;8.20;99.90;;;;;;5087068;28;20373;-77
2023/11/11 00:14:17;;;;;;;21.00;12.18;;;8.20;99.90;;;;;;5068795;28;20127;-77
2023/11/11 00:16:43;;;;;;;16.52;9.85;;;8.10;99.90;;;;;;5086689;28;20050;-76
2023/11/11 00:19:11;;;;;;;15.05;10.77;;;8.10;99.90;;;;;;5068615;28;20497;-77
2023/11/11 00:21:39;;;;;;;14.30;10.55;;;8.10;99.90;;;;;;5086568;28;20329;-77
2023/11/11 00:24:07;;;;;;;17.33;11.38;;;8.00;99.90;;;;;;5086810;28;20020;-77
2023/11/11 00:26:33;;;;;;;14.18;10.45;;;8.10;99.90;;;;;;5086328;28;20092;-77
2023/11/11 00:28:59;;;;;;;18.38;11.98;;;8.00;99.90;;;;;;5087137;28;20119;-77
2023/11/11 00:31:25;;;;;;;18.13;11.35;;;8.00;99.90;;;;;;5086363;28;20123;-77
2023/11/11 00:33:51;;;;;;;20.20;11.25;;;8.00;99.90;;;;;;5086499;28;20044;-77
2023/11/11 00:36:19;;;;;;;12.98;9.70;;;8.00;99.90;;;;;;5086619;28;20024;-77
2023/11/11 00:38:45;;;;;;;12.75;10.55;;;8.00;99.90;;;;;;5083398;28;20020;-77
2023/11/11 00:41:11;;;;;;;15.63;10.70;;;8.00;99.90;;;;;;5087003;28;20069;-77
2023/11/11 00:43:37;;;;;;;17.25;11.50;;;7.90;99.90;;;;;;5086560;28;20028;-77
2023/11/11 00:46:03;;;;;;;16.80;10.98;;;7.90;99.90;;;;;;5086590;28;20018;-77
2023/11/11 00:48:29;;;;;;;14.63;10.80;;;7.90;99.90;;;;;;5086342;28;20463;-77
2023/11/11 00:50:55;;;;;;;15.30;10.90;;;7.80;99.90;;;;;;5086650;28;20050;-77
2023/11/11 00:53:21;;;;;;;16.23;11.15;;;7.80;99.90;;;;;;5067985;28;20035;-77
2023/11/11 00:55:47;;;;;;;16.83;11.10;;;7.80;99.90;;;;;;5086816;28;20081;-77
2023/11/11 00:58:13;;;;;;;19.23;11.82;;;7.70;99.90;;;;;;5086574;28;20016;-77
2023/11/11 01:00:38;;;;;;;18.27;11.23;;;7.80;99.90;;;;;;5086461;28;20043;-77
2023/11/11 01:03:05;;;;;;;15.90;10.90;;;7.70;99.90;;;;;;5086278;28;20028;-77
2023/11/11 01:05:31;;;;;;;15.30;11.40;;;7.70;99.90;;;;;;5086792;28;20035;-77
2023/11/11 01:07:57;;;;;;;18.20;10.75;;;7.70;99.90;;;;;;5086352;28;20024;-78
2023/11/11 01:10:23;;;;;;;16.95;10.65;;;7.70;99.90;;;;;;5086903;28;20650;-77
2023/11/11 01:12:51;;;;;;;17.55;10.82;;;7.70;99.90;;;;;;5086006;28;20050;-77
2023/11/11 01:15:17;;;;;;;16.05;10.52;;;7.60;99.90;;;;;;5086474;28;20048;-75
2023/11/11 01:17:42;;;;;;;15.52;9.73;;;7.60;99.90;;;;;;5085968;28;20047;-75
2023/11/11 01:20:09;;;;;;;15.23;9.88;;;7.60;99.90;;;;;;5089601;28;20514;-75
2023/11/11 01:22:35;;;;;;;14.18;9.20;;;7.60;99.90;;;;;;5089921;28;20078;-75
2023/11/11 01:25:01;;;;;;;15.25;9.40;;;7.60;99.90;;;;;;5090289;28;20402;-75
2023/11/11 01:27:27;;;;;;;12.35;8.90;;;7.60;99.90;;;;;;5089680;28;20365;-75
2023/11/11 01:29:54;;;;;;;16.10;9.07;;;7.60;99.90;;;;;;5090083;28;20039;-75
2023/11/11 01:32:20;;;;;;;11.20;7.93;;;7.60;99.90;;;;;;5075129;28;20031;-74
2023/11/11 01:34:46;;;;;;;12.07;7.95;;;7.50;99.90;;;;;;5090335;28;20020;-75
2023/11/11 01:37:11;;;;;;;13.93;8.10;;;7.50;99.90;;;;;;5090231;28;20039;-76
2023/11/11 01:39:37;;;;;;;12.95;7.72;;;7.50;99.90;;;;;;5090690;28;20020;-75
2023/11/11 01:42:03;;;;;;;11.95;7.68;;;7.50;99.90;;;;;;5089632;28;20488;-78
2023/11/11 01:44:29;;;;;;;13.32;7.53;;;7.50;99.90;;;;;;5089896;28;20027;-77
2023/11/11 01:46:55;;;;;;;14.38;7.45;;;7.50;99.90;;;;;;5089557;28;20469;-77
2023/11/11 01:49:21;;;;;;;14.82;7.55;;;7.50;99.90;;;;;;5089511;28;20024;-77
2023/11/11 01:51:52;;;;;;;13.23;7.22;;;7.60;99.90;;;;;;5089386;28;20042;-77
2023/11/11 01:54:20;;;;;;;13.88;6.97;;;7.50;99.90;;;;;;5088782;28;20389;-77
2023/11/11 01:56:46;;;;;;;12.50;6.30;;;7.50;99.90;;;;;;5058304;28;20030;-77
2023/11/11 01:59:13;;;;;;;11.55;5.93;;;7.50;99.90;;;;;;5089868;28;20389;-77
2023/11/11 02:01:38;;;;;;;9.07;5.38;;;7.50;99.90;;;;;;5089300;28;20036;-77
2023/11/11 02:04:04;;;;;;;9.73;5.00;;;7.50;99.90;;;;;;5089502;28;20032;-77
2023/11/11 02:06:31;;;;;;;9.02;5.03;;;7.40;99.90;;;;;;5089213;28;20016;-77
2023/11/11 02:08:57;;;;;;;9.27;4.63;;;7.40;99.90;;;;;;5089425;28;20028;-77
2023/11/11 02:11:23;;;;;;;10.00;5.13;;;7.40;99.90;;;;;;5089039;28;20028;-77
2023/11/11 02:13:49;;;;;;;10.25;4.82;;;7.40;99.90;;;;;;5089058;28;20034;-78
2023/11/11 02:16:15;;;;;;;11.05;4.60;;;7.40;99.90;;;;;;5089487;28;20496;-77
2023/11/11 02:18:41;;;;;;;11.07;4.30;;;7.40;99.90;;;;;;5088845;28;20012;-77
2023/11/11 02:21:07;;;;;;;8.27;4.07;;;7.40;99.90;;;;;;5089017;28;20581;-77
2023/11/11 02:23:34;;;;;;;9.20;3.80;;;7.40;99.90;;;;;;5088807;28;20023;-78
2023/11/11 02:26:01;;;;;;;10.48;4.18;;;7.40;99.90;;;;;;5089367;28;20389;-78
2023/11/11 02:28:27;;;;;;;8.38;3.83;;;7.40;99.90;;;;;;5086647;28;20103;-77
2023/11/11 02:30:53;;;;;;;12.23;3.83;;;7.40;99.90;;;;;;5083398;28;20110;-77
2023/11/11 02:33:19;;;;;;;8.80;4.13;;;7.40;99.90;;;;;;5088199;28;20441;-78
2023/11/11 02:35:45;;;;;;;8.00;3.90;;;7.40;99.90;;;;;;5056850;28;20115;-77
2023/11/11 02:38:12;;;;;;;8.60;3.38;;;7.40;99.90;;;;;;5088659;28;20016;-77
2023/11/11 02:40:39;;;;;;;10.45;3.80;;;7.40;99.90;;;;;;5088912;28;20314;-78
2023/11/11 02:43:05;;;;;;;8.48;3.70;;;7.30;99.90;;;;;;5088478;28;20023;-78
2023/11/11 02:45:32;;;;;;;10.15;3.30;;;7.30;99.90;;;;;;5088639;28;20031;-77
2023/11/11 02:47:58;;;;;;;6.13;2.55;;;7.30;99.90;;;;;;5088429;28;20124;-77
2023/11/11 02:50:24;;;;;;;6.85;3.03;;;7.30;99.90;;;;;;5070325;28;20111;-78
2023/11/11 02:52:50;;;;;;;7.70;3.20;;;7.30;99.90;;;;;;5088017;28;20496;-78
2023/11/11 02:55:18;;;;;;;9.45;2.80;;;7.30;99.90;;;;;;5088867;28;20024;-77
2023/11/11 02:57:47;;;;;;;9.88;2.85;;;7.30;99.90;;;;;;5088230;28;20039;-77
2023/11/11 03:00:13;;;;;;;4.97;2.60;;;7.30;99.90;;;;;;5088490;28;20024;-77
2023/11/11 03:02:40;;;;;;;6.03;2.65;;;7.30;99.90;;;;;;5069750;28;20501;-77
2023/11/11 03:05:07;;;;;;;5.93;2.67;;;7.30;99.90;;;;;;5070019;28;20020;-77
2023/11/11 03:07:33;;;;;;;6.65;2.50;;;7.30;99.90;;;;;;5087946;28;20069;-77
2023/11/11 03:10:05;;;;;;;5.78;3.00;;;7.30;99.90;;;;;;5088549;28;20028;-77
2023/11/11 03:12:32;;;;;;;8.35;3.42;;;7.40;99.90;;;;;;5087993;28;20024;-77
2023/11/11 03:14:59;;;;;;;10.13;2.90;;;7.40;99.90;;;;;;5069941;28;20020;-78
2023/11/11 03:17:27;;;;;;;6.10;2.40;;;7.40;99.90;;;;;;5087563;28;20716;-77
2023/11/11 03:19:52;;;;;;;6.60;2.10;;;7.40;99.90;;;;;;5088025;28;20111;-77
2023/11/11 03:22:18;;;;;;;8.82;2.10;;;7.40;99.90;;;;;;5087945;28;20141;-77
2023/11/11 03:24:44;;;;;;;6.45;1.60;;;7.50;99.90;;;;;;5088160;28;20023;-77
2023/11/11 03:27:09;;;;;;;4.20;1.50;;;7.50;99.90;;;;;;5087599;28;20110;-77
2023/11/11 03:29:35;;;;;;;6.05;1.50;;;7.50;99.90;;;;;;5069555;28;20020;-77
2023/11/11 03:32:00;;;;;;;3.65;1.25;;;7.50;99.90;;;;;;5087495;28;20016;-77
2023/11/11 03:34:26;;;;;;;5.90;1.40;;;7.50;99.90;;;;;;5087394;28;20044;-77
2023/11/11 03:36:52;;;;;;;5.78;1.42;;;7.60;99.90;;;;;;5087715;28;20032;-77
2023/11/11 03:39:17;;;;;;;4.30;1.17;;;7.60;99.90;;;;;;5087414;28;20469;-77
2023/11/11 03:41:43;;;;;;;2.53;1.08;;;7.60;99.90;;;;;;5087107;28;20047;-77
2023/11/11 03:44:11;;;;;;;5.45;1.30;;;7.60;99.90;;;;;;5087098;28;20054;-77
2023/11/11 03:46:37;;;;;;;8.38;1.33;;;7.60;99.90;;;;;;5087201;28;20840;-77
2023/11/11 03:49:03;;;;;;;6.63;1.40;;;7.60;99.90;;;;;;5087325;28;20027;-78
2023/11/11 03:51:29;;;;;;;4.82;1.17;;;7.60;99.90;;;;;;5087425;28;20061;-75
2023/11/11 03:53:55;;;;;;;4.50;1.00;;;7.60;99.90;;;;;;5068942;28;20176;-75
2023/11/11 03:56:21;;;;;;;6.55;1.38;;;7.60;99.90;;;;;;5087295;28;20024;-76
2023/11/11 03:58:50;;;;;;;3.55;1.30;;;7.50;99.90;;;;;;5087229;28;20188;-76
2023/11/11 04:01:15;;;;;;;4.03;1.17;;;7.50;99.90;;;;;;5087249;28;20542;-75
2023/11/11 04:03:43;;;;;;;5.10;1.10;;;7.50;99.90;;;;;;5086710;28;20064;-78
2023/11/11 04:06:09;;;;;;;3.83;1.33;;;7.50;99.90;;;;;;5087460;28;20047;-77
2023/11/11 04:08:36;;;;;;;7.80;1.30;;;7.60;99.90;;;;;;5086611;28;20032;-78
2023/11/11 04:11:06;;;;;;;3.90;1.13;;;7.60;99.90;;;;;;5087362;28;20075;-78
2023/11/11 04:13:39;;;;;;;3.45;1.38;;;7.60;99.90;;;;;;5068228;28;20124;-78
2023/11/11 04:16:06;;;;;;;4.68;1.20;;;7.60;99.90;;;;;;5068897;28;20024;-78
2023/11/11 04:18:33;;;;;;;6.80;1.45;;;7.60;99.90;;;;;;5086500;28;20016;-77
2023/11/11 04:20:59;;;;;;;5.53;1.48;;;7.60;99.90;;;;;;5087005;28;20019;-78
2023/11/11 04:23:28;;;;;;;4.47;1.48;;;7.60;99.90;;;;;;5072292;28;20029;-78
2023/11/11 04:25:57;;;;;;;9.55;1.33;;;7.60;99.90;;;;;;5068804;28;20020;-77
2023/11/11 04:28:27;;;;;;;3.00;0.90;;;7.50;99.90;;;;;;5086355;28;20032;-78
2023/11/11 04:30:53;;;;;;;3.75;0.95;;;7.50;99.90;;;;;;5073359;28;20042;-77
2023/11/11 04:33:22;;;;;;;6.57;0.90;;;7.50;99.90;;;;;;5086052;28;20493;-78
2023/11/11 04:35:51;;;;;;;3.30;0.95;;;7.50;99.90;;;;;;5055167;28;20034;-78
2023/11/11 04:38:17;;;;;;;5.65;1.45;;;7.50;99.90;;;;;;5086609;28;20012;-77
2023/11/11 04:40:44;;;;;;;5.72;1.27;;;7.50;99.90;;;;;;5086538;28;20024;-77
2023/11/11 04:43:10;;;;;;;5.43;1.40;;;7.50;99.90;;;;;;5086414;28;20069;-78
2023/11/11 04:45:37;;;;;;;5.28;1.38;;;7.50;99.90;;;;;;5086218;28;20482;-77
2023/11/11 04:48:02;;;;;;;9.82;2.28;;;7.50;99.90;;;;;;5067949;28;20387;-78
2023/11/11 04:50:28;;;;;;;4.75;1.40;;;7.50;99.90;;;;;;5086499;28;20473;-77
2023/11/11 04:52:54;;;;;;;8.63;1.80;;;7.50;99.90;;;;;;5086131;28;20548;-77
2023/11/11 04:55:20;;;;;;;7.75;1.52;;;7.50;99.90;;;;;;5088588;28;20059;-77
2023/11/11 04:57:46;;;;;;;5.30;1.50;;;7.50;99.90;;;;;;5090488;28;20016;-77
2023/11/11 05:00:13;;;;;;;5.53;1.40;;;7.50;99.90;;;;;;5090318;28;20612;-77
2023/11/11 05:02:39;;;;;;;7.78;1.60;;;7.50;99.90;;;;;;5089802;28;20516;-77
2023/11/11 05:05:10;;;;;;;5.18;1.20;;;7.50;99.90;;;;;;5090421;28;20091;-77
2023/11/11 05:07:39;;;;;;;5.68;1.00;;;7.50;99.90;;;;;;5071814;28;20440;-76
2023/11/11 05:10:09;;;;;;;5.30;1.42;;;7.50;99.90;;;;;;5072070;28;20451;-77
2023/11/11 05:12:35;;;;;;;4.70;1.20;;;7.50;99.90;;;;;;5089975;28;20024;-77
2023/11/11 05:15:07;;;;;;;4.28;1.00;;;7.50;99.90;;;;;;5090582;28;20146;-77
2023/11/11 05:17:33;;;;;;;6.32;1.23;;;7.50;99.90;;;;;;5090028;28;20035;-76
2023/11/11 05:19:59;;;;;;;4.72;1.38;;;7.50;99.90;;;;;;5090285;28;20020;-77
2023/11/11 05:22:26;;;;;;;4.57;1.25;;;7.50;99.90;;;;;;5089826;28;20123;-76
2023/11/11 05:24:52;;;;;;;4.03;1.23;;;7.50;99.90;;;;;;5071953;28;20031;-76
2023/11/11 05:27:17;;;;;;;5.32;1.50;;;7.50;99.90;;;;;;5089875;28;20012;-76
2023/11/11 05:29:43;;;;;;;8.50;1.80;;;7.50;99.90;;;;;;5066550;28;20059;-76
2023/11/11 05:32:09;;;;;;;7.45;1.55;;;7.50;99.90;;;;;;5087986;28;20028;-76
2023/11/11 05:34:34;;;;;;;5.07;1.58;;;7.50;99.90;;;;;;5071700;28;20035;-77
2023/11/11 05:37:00;;;;;;;8.98;1.80;;;7.50;99.90;;;;;;5089805;28;20097;-76
2023/11/11 05:39:26;;;;;;;4.13;1.35;;;7.50;99.90;;;;;;5071533;28;20492;-76
2023/11/11 05:41:52;;;;;;;2.25;1.30;;;7.50;99.90;;;;;;5089897;28;20024;-76
2023/11/11 05:44:18;;;;;;;7.30;1.65;;;7.50;99.90;;;;;;5089821;28;20103;-76
2023/11/11 05:46:43;;;;;;;4.78;1.60;;;7.50;99.90;;;;;;5089979;28;20754;-76
2023/11/11 05:49:09;;;;;;;5.07;1.50;;;7.50;99.90;;;;;;5075493;28;20086;-76
2023/11/11 05:51:35;;;;;;;6.40;1.70;;;7.50;99.90;;;;;;5089933;28;20088;-76
2023/11/11 05:54:01;;;;;;;7.70;2.05;;;7.50;99.90;;;;;;5089286;28;20112;-76
2023/11/11 05:56:27;;;;;;;8.60;1.58;;;7.50;99.90;;;;;;5089381;28;20016;-76
2023/11/11 05:58:53;;;;;;;6.60;2.03;;;7.50;99.90;;;;;;5089137;28;20152;-76
2023/11/11 06:01:20;;;;;;;11.65;1.85;;;7.50;99.90;;;;;;5089365;28;20024;-73
2023/11/11 06:03:46;;;;;;;6.45;2.28;;;7.50;99.90;;;;;;5071000;28;20036;-74
2023/11/11 06:06:11;;;;;;;6.55;2.10;;;7.40;99.90;;;;;;5088955;28;20034;-73
2023/11/11 06:08:37;;;;;;;8.18;1.90;;;7.40;99.90;;;;;;5089118;28;20031;-73
2023/11/11 06:11:03;;;;;;;6.45;1.80;;;7.40;99.90;;;;;;5089253;28;20607;-74
2023/11/11 06:13:29;;;;;;;3.15;1.55;;;7.40;99.90;;;;;;5088923;28;20038;-74
2023/11/11 06:15:54;;;;;;;2.15;1.27;;;7.30;99.90;;;;;;5089270;28;20016;-74
2023/11/11 06:18:20;;;;;;;5.57;1.10;;;7.40;99.90;;;;;;5088815;28;20554;-74
2023/11/11 06:20:46;;;;;;;5.30;1.27;;;7.30;99.90;;;;;;5089419;28;20016;-74
2023/11/11 06:23:11;;;;;;;4.78;1.00;;;7.30;99.90;;;;;;5070410;28;20452;-74
2023/11/11 06:25:37;;;;;;;5.72;1.30;;;7.30;99.90;;;;;;5088601;28;20442;-74
2023/11/11 06:28:03;;;;;;;5.72;0.98;;;7.30;99.90;;;;;;5088917;28;20081;-74
2023/11/11 06:30:28;;;;;;;2.63;0.57;;;7.30;99.90;;;;;;5082320;28;20065;-74
2023/11/11 06:32:56;;;;;;;2.88;0.73;;;7.30;99.90;;;;;;5088157;28;20493;-74
2023/11/11 06:35:24;;;;;;;2.10;0.90;;;7.30;99.90;;;;;;5089071;28;20028;-74
2023/11/11 06:37:50;;;;;;;2.53;0.75;;;7.20;99.90;;;;;;5088586;28;20051;-74
2023/11/11 06:40:16;;;;;;;2.20;0.93;;;7.20;99.90;;;;;;5088661;28;20067;-74
2023/11/11 06:42:42;;;;;;;2.70;0.90;;;7.20;99.90;;;;;;5070028;28;20598;-74
2023/11/11 06:45:09;;;;;;;3.33;1.40;;;7.20;99.90;;;;;;5088699;28;20052;-74
2023/11/11 06:47:35;;;;;;;4.78;1.02;;;7.20;99.90;;;;;;5070046;28;20512;-74
2023/11/11 06:50:01;;;;;;;4.75;1.30;;;7.20;99.90;;;;;;5089112;28;20026;-74
2023/11/11 06:52:27;;;;;;;6.57;1.25;;;7.20;99.90;;;;;;5088780;28;20119;-74
2023/11/11 06:54:52;;;;;;;3.55;1.73;;;7.20;99.90;;;;;;5088376;28;20103;-73
2023/11/11 06:57:19;;;;;;;6.88;1.73;;;7.10;99.90;;;;;;5087895;28;20046;-74
2023/11/11 06:59:45;;;;;;;2.75;1.50;;;7.10;99.90;;;;;;5088394;28;20032;-75
2023/11/11 07:02:12;;;;;;;4.15;1.92;;;7.10;99.90;;;;;;5088329;28;20012;-74
2023/11/11 07:04:42;;;;;;;4.35;2.00;;;7.20;99.90;;;;;;5088198;28;20055;-74
2023/11/11 07:07:07;;;;;;;6.15;2.35;;;7.20;99.90;;;;;;5069893;28;20027;-75
2023/11/11 07:09:38;;;;;;;3.80;2.00;;;7.20;99.90;;;;;;5069926;28;20027;-74
2023/11/11 07:12:04;;;;;;;5.18;1.92;;;7.20;99.90;;;;;;5088219;28;20528;-75
2023/11/11 07:14:30;;;;;;;3.63;1.88;;;7.20;99.90;;;;;;5088011;28;20024;-75
2023/11/11 07:16:56;;;;;;;4.40;2.20;;;7.20;99.90;;;;;;5069216;28;20477;-75
2023/11/11 07:19:21;;;;;;;6.50;2.53;;;7.20;99.90;;;;;;5080380;28;20027;-74
2023/11/11 07:21:47;;;;;;;6.18;2.25;;;7.10;99.90;;;;;;5087960;28;20016;-74
2023/11/11 07:24:13;;;;;;;8.00;2.70;;;7.10;99.90;;;;;;5078943;28;20034;-75
2023/11/11 07:26:41;;;;;;;7.18;1.98;;;7.10;99.90;;;;;;5083073;28;20031;-74
2023/11/11 07:29:06;;;;;;;5.60;1.70;;;7.10;99.90;;;;;;5069408;28;20024;-75
2023/11/11 07:31:32;;;;;;;5.18;1.50;;;7.10;99.90;;;;;;5078119;28;20028;-75
2023/11/11 07:34:00;;;;;;;3.38;1.70;;;7.10;99.90;;;;;;5086842;28;20185;-74
2023/11/11 07:36:26;;;;;;;6.95;1.95;;;7.10;99.90;;;;;;5079828;28;20544;-74
2023/11/11 07:38:52;;;;;;;4.05;1.42;;;7.10;99.90;;;;;;5087187;28;20154;-75
2023/11/11 07:41:21;;;;;;;5.72;1.30;;;7.10;99.90;;;;;;5080805;28;20099;-74
2023/11/11 07:43:48;;;;;;;2.90;1.27;;;7.10;99.90;;;;;;5080069;28;20020;-74
2023/11/11 07:46:19;;;;;;;3.00;1.38;;;7.10;99.90;;;;;;5062169;28;20035;-75
2023/11/11 07:48:44;;;;;;;5.57;1.20;;;7.10;99.90;;;;;;5087383;28;20051;-75
2023/11/11 07:51:10;;;;;;;2.65;1.10;;;7.10;99.90;;;;;;5075918;28;20560;-75
2023/11/11 07:53:36;;;;;;;3.67;1.30;;;7.10;99.90;;;;;;5078247;28;20132;-75
2023/11/11 07:56:02;;;;;;;2.72;1.00;;;7.10;99.90;;;;;;5070092;28;20066;-75
2023/11/11 07:58:29;;;;;;;5.85;1.13;;;7.10;99.90;;;;;;5068652;28;20151;-75
2023/11/11 08:00:56;;;;;;;2.92;0.90;;;7.10;99.90;;;;;;5086653;28;20386;-74
2023/11/11 08:03:27;;;;;;;3.80;1.00;;;7.10;99.90;;;;;;5083300;28;20028;-75
2023/11/11 08:05:53;;;;;;;3.17;0.85;;;7.10;99.90;;;;;;5069300;28;20596;-75
2023/11/11 08:08:19;;;;;;;3.00;1.00;;;7.10;99.90;;;;;;5080410;28;20035;-75
2023/11/11 08:10:45;;;;;;;1.45;0.73;;;7.20;99.90;;;;;;5087199;28;20031;-75
2023/11/11 08:13:10;;;;;;;2.70;1.02;;;7.10;99.90;;;;;;5086682;28;20027;-74
2023/11/11 08:15:36;;;;;;;1.67;1.10;;;7.20;99.90;;;;;;5087037;28;20161;-75
2023/11/11 08:18:03;;;;;;;4.30;1.10;;;7.20;99.90;;;;;;5086977;28;20131;-74
2023/11/11 08:20:29;;;;;;;4.07;1.30;;;7.30;99.90;;;;;;5086832;28;20035;-76
2023/11/11 08:22:55;;;;;;;3.78;1.13;;;7.30;99.90;;;;;;5086613;28;20020;-75
2023/11/11 08:25:22;;;;;;;2.10;0.70;;;7.30;99.90;;;;;;5068267;28;20038;-75
2023/11/11 08:27:50;;;;;;;2.63;0.88;;;7.30;99.90;;;;;;5086523;28;20020;-74
2023/11/11 08:30:16;;;;;;;1.42;0.90;;;7.40;99.90;;;;;;5079283;28;20020;-75
2023/11/11 08:32:42;;;;;;;1.23;0.93;;;7.40;99.90;;;;;;5086048;28;20044;-75
2023/11/11 08:35:09;;;;;;;1.30;0.70;;;7.40;99.90;;;;;;5085442;28;20118;-75
2023/11/11 08:37:34;;;;;;;3.53;0.98;;;7.50;99.90;;;;;;5070610;28;20004;-75
2023/11/11 08:40:03;;;;;;;4.70;1.08;;;7.50;99.90;;;;;;5059010;28;20073;-75
2023/11/11 08:42:28;;;;;;;4.55;1.17;;;7.60;99.90;;;;;;5071271;28;20050;-75
2023/11/11 08:44:58;;;;;;;2.42;1.30;;;7.60;99.90;;;;;;5074817;28;20024;-75
2023/11/11 08:47:24;;;;;;;1.90;0.88;;;7.70;99.90;;;;;;5087703;28;20024;-75
2023/11/11 08:49:50;;;;;;;2.80;0.90;;;7.80;99.90;;;;;;5068858;28;20246;-75
2023/11/11 08:52:16;;;;;;;1.92;0.80;;;7.80;99.90;;;;;;5067992;28;20024;-75
2023/11/11 08:54:42;;;;;;;4.03;1.02;;;7.90;99.90;;;;;;5086101;28;20054;-75
2023/11/11 08:57:07;;;;;;;1.65;0.73;;;8.00;99.90;;;;;;5068289;28;20043;-74
2023/11/11 08:59:33;;;;;;;3.80;0.88;;;8.00;99.90;;;;;;5062037;28;20025;-75
2023/11/11 09:01:59;;;;;;;2.88;0.75;;;8.00;99.90;;;;;;5083638;28;20103;-75
2023/11/11 09:04:25;;;;;;;4.00;0.80;;;8.00;99.90;;;;;;5084777;28;20047;-75
2023/11/11 09:06:50;;;;;;;2.53;0.85;;;8.10;99.90;;;;;;5067286;28;20459;-76
2023/11/11 09:09:16;;;;;;;5.00;0.93;;;8.10;99.90;;;;;;5077940;28;20586;-75
2023/11/11 09:11:42;;;;;;;3.47;1.10;;;8.10;99.90;;;;;;5083114;28;20039;-76
2023/11/11 09:14:08;;;;;;;1.40;0.80;;;8.10;99.90;;;;;;5085490;28;20047;-75
2023/11/11 09:16:34;;;;;;;2.97;1.00;;;8.10;99.90;;;;;;5081685;28;20465;-75
2023/11/11 09:19:00;;;;;;;4.55;0.80;;;8.10;99.90;;;;;;5066326;28;20021;-75
2023/11/11 09:21:27;;;;;;;5.65;1.20;;;8.10;99.90;;;;;;5062465;28;20032;-75
2023/11/11 09:23:53;;;;;;;2.47;0.90;;;8.10;99.90;;;;;;5084974;28;20024;-75
2023/11/11 09:26:19;;;;;;;3.00;1.23;;;8.10;99.90;;;;;;5064918;28;20039;-75
2023/11/11 09:28:46;;;;;;;3.75;1.30;;;8.00;99.90;;;;;;5077789;28;20019;-74
2023/11/11 09:31:12;;;;;;;2.78;1.40;;;8.00;99.90;;;;;;5084271;28;20036;-75
2023/11/11 09:33:39;;;;;;;4.72;1.60;;;8.00;99.90;;;;;;5084256;28;20564;-75
2023/11/11 09:36:06;;;;;;;3.83;1.75;;;8.00;99.90;;;;;;5083894;28;20093;-75
2023/11/11 09:38:35;;;;;;;7.50;2.72;;;8.00;99.90;;;;;;5083943;28;20052;-75
2023/11/11 09:41:00;;;;;;;3.35;1.55;;;8.00;99.90;;;;;;5084692;28;20020;-75
2023/11/11 09:43:26;;;;;;;4.28;1.77;;;8.00;99.90;;;;;;5077191;28;20754;-75
2023/11/11 09:45:54;;;;;;;7.82;2.47;;;8.00;99.90;;;;;;5085029;28;20031;-76
2023/11/11 09:48:19;;;;;;;5.20;2.47;;;8.10;99.90;;;;;;5082657;28;20020;-75
2023/11/11 09:50:45;;;;;;;3.67;2.40;;;8.10;99.90;;;;;;5087846;28;20063;-75
2023/11/11 09:53:12;;;;;;;10.02;4.03;;;8.10;99.90;;;;;;5087288;28;20107;-75
2023/11/11 09:55:40;;;;;;;9.38;4.38;;;8.10;99.90;;;;;;5083433;28;20424;-75
2023/11/11 09:58:07;;;;;;;12.10;4.88;;;8.10;99.90;;;;;;5087092;28;20016;-76
2023/11/11 10:00:33;;;;;;;12.80;5.78;;;8.10;99.90;;;;;;5063875;28;20035;-75
2023/11/11 10:02:59;;;;;;;11.48;5.93;;;8.10;99.90;;;;;;5081167;28;20032;-75
2023/11/11 10:05:24;;;;;;;12.90;6.20;;;8.20;99.90;;;;;;5084626;28;20110;-75
2023/11/11 10:07:51;;;;;;;14.30;7.13;;;8.20;99.90;;;;;;5076715;28;20020;-75
2023/11/11 10:10:16;;;;;;;12.30;6.47;;;8.20;99.90;;;;;;5070224;28;20463;-76
2023/11/11 10:12:42;;;;;;;13.18;6.15;;;8.30;99.90;;;;;;5087084;28;20154;-75
2023/11/11 10:15:09;;;;;;;12.65;5.65;;;8.40;99.90;;;;;;5087105;28;20046;-75
2023/11/11 10:17:39;;;;;;;9.77;5.07;;;8.50;99.90;;;;;;5081808;28;20429;-75
2023/11/11 10:20:08;;;;;;;17.00;6.30;;;8.60;99.90;;;;;;5085486;28;20027;-76
2023/11/11 10:22:37;;;;;;;11.95;6.25;;;8.70;99.90;;;;;;5096638;28;20102;-75
2023/11/11 10:25:05;;;;;;;16.80;6.43;;;8.80;99.90;;;;;;5069940;28;20028;-75
2023/11/11 10:27:30;;;;;;;13.32;6.15;;;8.80;99.90;;;;;;5088774;28;20028;-75
2023/11/11 10:29:56;;;;;;;10.65;5.68;;;8.90;99.90;;;;;;5081926;28;20028;-75
2023/11/11 10:32:22;;;;;;;11.02;4.72;;;9.00;99.90;;;;;;5086064;28;20062;-76
2023/11/11 10:34:48;;;;;;;13.38;5.70;;;9.00;99.90;;;;;;5079533;28;20125;-75
2023/11/11 10:37:13;;;;;;;19.10;6.13;;;9.00;99.90;;;;;;5069468;28;20985;-75
2023/11/11 10:39:39;;;;;;;12.90;5.45;;;9.00;99.90;;;;;;5088044;28;20024;-75
2023/11/11 10:42:05;;;;;;;15.82;5.50;;;9.00;99.90;;;;;;5088749;28;20096;-75
2023/11/11 10:44:34;;;;;;;14.40;4.88;;;9.10;99.90;;;;;;5087797;28;20028;-75
2023/11/11 10:47:00;;;;;;;10.45;5.38;;;9.10;99.90;;;;;;5088551;28;20024;-75
2023/11/11 10:49:27;;;;;;;7.30;4.10;;;9.10;99.90;;;;;;5069788;28;20032;-75
2023/11/11 10:51:56;;;;;;;11.88;4.53;;;9.10;99.90;;;;;;5088560;28;20157;-76
2023/11/11 10:54:25;;;;;;;8.98;3.90;;;9.20;99.90;;;;;;5070619;28;20036;-78
2023/11/11 10:56:53;;;;;;;9.57;4.10;;;9.30;99.90;;;;;;5088778;28;20028;-77
2023/11/11 10:59:21;;;;;;;17.40;5.30;;;9.30;99.90;;;;;;5087827;28;20024;-76
2023/11/11 11:01:47;;;;;;;17.00;5.07;;;9.40;99.90;;;;;;5069620;28;20027;-75
2023/11/11 11:04:12;;;;;;;9.77;4.53;;;9.50;99.90;;;;;;5087876;28;20473;-75
2023/11/11 11:06:44;;;;;;;8.02;4.07;;;9.50;99.90;;;;;;5075659;28;20104;-74
2023/11/11 11:09:38;;;;;;;12.75;4.57;;;9.50;99.90;;;;;;5087838;28;20032;-76
2023/11/11 11:12:30;;;;;;;8.27;3.88;;;9.50;99.90;;;;;;5057169;28;20031;-75
2023/11/11 11:15:00;;;;;;;7.18;3.70;;;9.50;99.90;;;;;;5083827;28;20047;-74
2023/11/11 11:17:34;;;;;;;10.77;3.67;;;9.60;99.90;;;;;;5087945;28;20408;-73
2023/11/11 11:20:04;;;;;;;10.90;4.50;;;9.60;99.90;;;;;;5086907;28;20020;-74
2023/11/11 11:22:39;;;;;;;9.07;3.80;;;9.70;99.90;;;;;;5088176;28;20028;-73
2023/11/11 11:25:37;;;;;;;16.90;3.90;;;9.90;99.90;;;;;;5087743;28;20024;-74
2023/11/11 11:28:14;;;;;;;9.13;3.17;;;10.00;99.90;;;;;;5087714;28;20202;-74
2023/11/11 11:30:43;;;;;;;7.15;2.70;;;10.10;99.90;;;;;;5080236;28;20377;-73
2023/11/11 11:33:32;;;;;;;8.13;3.20;;;10.10;99.90;;;;;;5085935;28;20105;-74
2023/11/11 11:36:05;;;;;;;6.88;2.92;;;10.00;99.90;;;;;;5067382;28;20016;-73
2023/11/11 11:38:35;;;;;;;6.13;2.25;;;10.00;99.90;;;;;;5081961;28;20016;-74
2023/11/11 11:41:12;;;;;;;6.80;2.13;;;10.00;99.90;;;;;;5068664;28;20051;-74
2023/11/11 11:43:40;;;;;;;5.10;1.90;;;10.00;99.90;;;;;;5060668;28;20279;-75
2023/11/11 11:46:06;;;;;;;7.07;1.90;;;9.90;99.90;;;;;;5083075;28;20012;-74
2023/11/11 11:48:39;;;;;;;4.07;1.63;;;9.90;99.90;;;;;;5081167;28;20183;-74
2023/11/11 11:51:08;;;;;;;5.32;2.00;;;9.80;99.90;;;;;;5086892;28;20020;-73
2023/11/11 11:53:38;;;;;;;8.20;2.00;;;9.80;99.90;;;;;;5075598;28;20032;-73
2023/11/11 11:56:06;;;;;;;3.30;1.67;;;9.80;99.90;;;;;;5055260;28;20048;-75
2023/11/11 11:58:48;;;;;;;3.92;1.70;;;9.90;99.90;;;;;;5086901;28;20012;-77
2023/11/11 12:01:27;;;;;;;3.50;1.25;;;9.90;99.90;;;;;;5087172;28;20020;-76
2023/11/11 12:03:54;;;;;;;5.15;1.73;;;9.90;99.90;;;;;;5067099;28;20030;-76
2023/11/11 12:06:22;;;;;;;2.72;1.42;;;9.90;99.90;;;;;;5086981;28;20051;-76
2023/11/11 12:08:54;;;;;;;4.38;1.20;;;9.90;99.90;;;;;;5068529;28;20540;-74
2023/11/11 12:11:34;;;;;;;4.03;1.33;;;9.80;99.90;;;;;;5085642;28;20143;-74
2023/11/11 12:14:04;;;;;;;6.60;1.20;;;9.90;99.90;;;;;;5084691;28;20031;-73
2023/11/11 12:16:40;;;;;;;3.57;1.20;;;9.80;99.90;;;;;;5086789;28;20028;-73
2023/11/11 12:19:09;;;;;;;5.88;1.70;;;9.80;99.90;;;;;;5067186;28;20024;-74
2023/11/11 12:21:37;;;;;;;2.55;1.27;;;9.80;99.90;;;;;;5086726;28;20016;-74
2023/11/11 12:24:03;;;;;;;3.38;1.48;;;9.80;99.90;;;;;;5066138;28;20543;-74
2023/11/11 12:26:29;;;;;;;9.73;1.88;;;9.80;99.90;;;;;;5083504;28;20393;-74
2023/11/11 12:28:56;;;;;;;7.38;1.63;;;9.90;99.90;;;;;;5086622;28;20024;-75
2023/11/11 12:31:22;;;;;;;4.65;2.00;;;10.00;99.90;;;;;;5067994;28;20819;-74
2023/11/11 12:33:51;;;;;;;4.00;1.67;;;10.20;99.90;;;;;;5084093;28;20082;-75
2023/11/11 12:36:17;;;;;;;3.83;1.83;;;10.30;99.90;;;;;;5076646;28;20017;-74
2023/11/11 12:38:45;;;;;;;5.70;1.98;;;10.30;99.90;;;;;;5082794;28;20028;-75
2023/11/11 12:41:13;;;;;;;2.70;1.45;;;10.30;99.90;;;;;;5086903;28;20039;-75
2023/11/11 12:43:38;;;;;;;5.60;2.00;;;10.40;99.90;;;;;;5066966;28;20464;-76
2023/11/11 12:46:06;;;;;;;5.97;1.80;;;10.40;99.90;;;;;;5077012;28;20038;-76
2023/11/11 12:48:32;;;;;;;5.28;1.80;;;10.40;99.90;;;;;;5079821;28;20060;-75
2023/11/11 12:50:58;;;;;;;6.35;1.88;;;10.40;99.90;;;;;;5086788;28;20119;-75
2023/11/11 12:53:23;;;;;;;3.45;1.65;;;10.40;99.90;;;;;;5078302;28;20504;-76